NWWD

Details ICAO NWWD (KNQ)
Name Kone
Region New Caledonia
Timezone Pacific/Noumea (UTC+11.0)
Plans Departing 1
Arriving 3
Stats Elevation 22 ft / 7 m (AMSL)
Location -21.053433° 164.837778°
Runways 1
Magnetic Variation 11.843° E
Sunrise 2017-12-14 18:14:57 UTC / 2017-12-15 05:14:57 Local
Sunset 2017-12-15 07:39:00 UTC / 2017-12-15 18:39:00 Local
Advertisement - Login to hide

Runways

ID Width Length Bearing (true) Bearing (mag) Surface Threshold Offset Overrun Length
09 75 ft / 23 m 3,279 ft / 999 m 99.96° 88.12° Asphalt 0 ft / 0 m 0 ft / 0 m
27 75 ft / 23 m 3,279 ft / 999 m 279.96° 268.12° Asphalt 0 ft / 0 m 0 ft / 0 m

Map

Weather


0- 5 10 15 20 25 30 35+ Temperature / ° C

Clouds and Precipitation
Forecast for 2017-12-14 18:00 UTC. Updated 2 minutes ago

Ground ~20,000 ft ~40,000 ft Winds

METAR

Not found

TAF

TAF NWWD 140500Z 1406/1506 08006KT 9999 BKN045 PROB40 TEMPO 1406/1410 4000 SHRA SCT018CB PROB40 TEMPO 1409/1424 3000 SHRA SCT015CB PROB40 TEMPO 1500/1506 4000 SHRA FEW030CB

Frequencies

Recorded 122.50 MHz KONE FSS
Unicom 122.50 MHz KONE UNIC
Warning: Do not use this data for real-world aviation or navigation. No guarantee of current accuracy is given.